createdAt,value
2023-04-02T15:18:12.098Z,11.93
2023-04-02T15:20:48.552Z,14.40
2023-04-02T15:23:34.382Z,14.90
2023-04-02T15:26:11.905Z,16.13
2023-04-02T15:29:09.293Z,18.55
2023-04-02T15:31:45.752Z,20.52
2023-04-02T15:34:20.080Z,19.40
2023-04-02T15:37:08.153Z,18.75
2023-04-02T15:39:56.801Z,25.05
2023-04-02T15:42:34.142Z,20.55
2023-04-02T15:45:12.811Z,18.48
2023-04-02T15:47:42.389Z,18.60
2023-04-02T15:50:44.065Z,17.48
2023-04-02T15:53:34.866Z,18.17
2023-04-02T15:56:28.430Z,18.83
2023-04-02T15:59:41.229Z,18.55
2023-04-02T16:02:27.327Z,18.42
2023-04-02T16:05:09.110Z,17.60
2023-04-02T16:08:17.173Z,17.58
2023-04-02T16:10:45.557Z,16.70
2023-04-02T16:13:20.781Z,21.52
2023-04-02T16:16:21.200Z,19.38
2023-04-02T16:18:59.240Z,19.58
2023-04-02T16:21:33.264Z,17.52
2023-04-02T16:24:00.185Z,16.77
2023-04-02T16:26:32.520Z,17.60
2023-04-02T16:29:28.636Z,17.50
2023-04-02T16:32:05.053Z,16.77
2023-04-02T16:35:40.925Z,17.17
2023-04-02T16:38:10.468Z,16.92
2023-04-02T16:41:06.812Z,15.30
2023-04-02T16:44:02.124Z,15.30
2023-04-02T16:50:00.017Z,15.48
2023-04-02T16:53:11.443Z,15.93
2023-04-02T16:56:07.814Z,15.40
2023-04-02T16:58:49.788Z,15.32
2023-04-02T17:01:33.545Z,16.15
2023-04-02T17:04:22.997Z,18.63
2023-04-02T17:07:22.915Z,17.08
2023-04-02T17:09:52.231Z,17.17
2023-04-02T17:12:32.534Z,16.77
2023-04-02T17:15:17.034Z,17.17
2023-04-02T17:17:58.071Z,17.20
2023-04-02T17:20:27.125Z,15.95
2023-04-02T17:22:55.792Z,17.30
2023-04-02T17:25:38.583Z,18.08
2023-04-02T17:28:12.492Z,17.48
2023-04-02T17:30:51.259Z,16.88
2023-04-02T17:33:22.039Z,17.23
2023-04-02T17:36:02.242Z,17.35
2023-04-02T17:38:47.873Z,19.35
2023-04-02T17:41:30.546Z,19.30
2023-04-02T17:44:05.913Z,19.85
2023-04-02T17:47:03.267Z,18.77
2023-04-02T17:50:00.924Z,18.60
2023-04-02T17:52:48.598Z,18.63
2023-04-02T17:55:40.635Z,19.95
2023-04-02T17:58:39.402Z,19.45
2023-04-02T18:01:17.470Z,19.85
2023-04-02T18:03:49.230Z,20.92
2023-04-02T18:06:27.734Z,22.27
2023-04-02T18:09:29.605Z,21.42
2023-04-02T18:12:38.778Z,21.80
2023-04-02T18:15:47.659Z,21.52
2023-04-02T18:18:35.012Z,24.90
2023-04-02T18:21:24.537Z,22.08
2023-04-02T18:24:35.746Z,21.23
2023-04-02T18:27:11.362Z,20.98
2023-04-02T18:29:50.002Z,22.08
2023-04-02T18:32:34.904Z,21.65
2023-04-02T18:35:38.834Z,21.38
2023-04-02T18:38:43.665Z,23.40
2023-04-02T18:41:32.384Z,23.25
2023-04-02T18:44:08.848Z,23.90
2023-04-02T18:46:41.742Z,23.48
2023-04-02T18:49:27.770Z,23.80
2023-04-02T18:52:02.441Z,27.20
2023-04-02T18:54:35.883Z,29.98
2023-04-02T18:57:11.552Z,28.75
2023-04-02T19:00:06.737Z,21.73
2023-04-02T19:02:38.833Z,23.27
2023-04-02T19:05:26.250Z,22.02
2023-04-02T19:07:59.891Z,20.48
2023-04-02T19:10:31.501Z,20.33
2023-04-02T19:12:58.089Z,20.08
2023-04-02T19:15:38.553Z,18.77
2023-04-02T19:18:15.896Z,18.42
2023-04-02T19:21:16.506Z,20.35
2023-04-02T19:23:56.729Z,19.42
2023-04-02T19:26:30.716Z,19.70
2023-04-02T19:29:06.293Z,18.38
2023-04-02T19:31:41.735Z,17.73
2023-04-02T19:34:08.436Z,18.58
2023-04-02T19:36:45.015Z,18.27
2023-04-02T19:39:33.424Z,17.75
2023-04-02T19:42:15.455Z,18.27
2023-04-02T19:44:47.331Z,18.65
2023-04-02T19:47:17.754Z,21.60
2023-04-02T19:49:44.953Z,19.35
2023-04-02T19:52:12.326Z,18.10
2023-04-02T19:54:39.048Z,19.25
2023-04-02T19:57:05.965Z,19.48
2023-04-02T19:59:35.143Z,18.45
2023-04-02T20:02:06.785Z,17.70
2023-04-02T20:04:33.532Z,17.90
2023-04-02T20:07:00.177Z,18.75
2023-04-02T20:09:27.633Z,19.95
2023-04-02T20:11:54.180Z,18.45
2023-04-02T20:14:20.783Z,19.23
2023-04-02T20:16:47.857Z,17.85
2023-04-02T20:19:14.490Z,18.73
2023-04-02T20:21:41.230Z,31.90
2023-04-02T20:24:09.567Z,30.42
2023-04-02T20:26:36.706Z,22.85
2023-04-02T20:29:04.081Z,23.55
2023-04-02T20:31:32.299Z,35.72
2023-04-02T20:34:00.014Z,40.85
2023-04-02T20:36:26.760Z,42.75
2023-04-02T20:38:53.469Z,40.28
2023-04-02T20:41:21.876Z,49.92
2023-04-02T20:43:49.898Z,46.83
2023-04-02T20:46:17.141Z,45.08
2023-04-02T20:48:44.157Z,51.42
2023-04-02T20:51:14.489Z,46.13
2023-04-02T20:53:42.261Z,48.25
2023-04-02T20:56:14.408Z,47.25
2023-04-02T20:58:42.186Z,46.70
2023-04-02T21:01:26.553Z,44.22
2023-04-02T21:03:59.355Z,42.30
2023-04-02T21:06:30.386Z,42.58
2023-04-02T21:08:57.324Z,38.95
2023-04-02T21:11:24.758Z,36.78
2023-04-02T21:13:51.807Z,36.80
2023-04-02T21:16:29.228Z,31.17
2023-04-02T21:18:58.411Z,32.33
2023-04-02T21:21:25.934Z,30.80
2023-04-02T21:24:00.640Z,30.65
2023-04-02T21:26:29.091Z,30.73
2023-04-02T21:28:55.998Z,32.72
2023-04-02T21:31:27.442Z,32.08
2023-04-02T21:33:56.966Z,31.25
2023-04-02T21:36:29.352Z,32.42
2023-04-02T21:39:03.749Z,34.00
2023-04-02T21:41:33.946Z,32.65
2023-04-02T21:44:03.227Z,33.60
2023-04-02T21:46:33.594Z,34.58
2023-04-02T21:49:00.973Z,33.97
2023-04-02T21:51:30.064Z,33.53
2023-04-02T21:53:57.724Z,33.22
2023-04-02T21:56:27.117Z,31.27
2023-04-02T21:58:54.690Z,32.78
2023-04-02T22:01:27.342Z,31.92
2023-04-02T22:03:59.312Z,29.45
2023-04-02T22:06:28.128Z,29.80
2023-04-02T22:09:00.405Z,29.55
2023-04-02T22:11:47.548Z,30.83
2023-04-02T22:14:14.494Z,31.90
2023-04-02T22:16:42.594Z,28.73
2023-04-02T22:19:14.736Z,35.45
2023-04-02T22:21:42.017Z,34.45
2023-04-02T22:24:14.844Z,30.73
2023-04-02T22:26:42.237Z,31.88
2023-04-02T22:29:09.310Z,31.90
2023-04-02T22:31:36.044Z,30.50
2023-04-02T22:34:04.765Z,29.70
2023-04-02T22:36:31.848Z,28.50
2023-04-02T22:39:01.697Z,27.50
2023-04-02T22:41:29.604Z,26.40
2023-04-02T22:43:56.977Z,26.17
2023-04-02T22:46:25.787Z,25.42
2023-04-02T22:48:53.728Z,25.77
2023-04-02T22:51:21.781Z,25.92
2023-04-02T22:53:49.587Z,26.08
2023-04-02T22:56:23.018Z,24.77
2023-04-02T22:58:49.869Z,24.83
2023-04-02T23:01:23.093Z,30.80
2023-04-02T23:03:52.585Z,32.17
2023-04-02T23:06:19.328Z,30.95
2023-04-02T23:08:47.054Z,31.83
2023-04-02T23:11:19.914Z,33.90
2023-04-02T23:13:48.782Z,32.17
2023-04-02T23:16:16.459Z,32.25
2023-04-02T23:18:48.888Z,32.60
2023-04-02T23:21:16.909Z,32.65
2023-04-02T23:23:44.171Z,30.90
2023-04-02T23:26:14.929Z,30.98
2023-04-02T23:28:42.295Z,31.90
2023-04-02T23:31:13.258Z,31.17
2023-04-02T23:33:40.498Z,30.90
2023-04-02T23:36:16.459Z,31.65
2023-04-02T23:38:43.973Z,33.20
2023-04-02T23:41:15.424Z,33.00
2023-04-02T23:43:42.782Z,32.72
2023-04-02T23:46:09.482Z,31.55
2023-04-02T23:48:36.242Z,32.47
2023-04-02T23:51:02.799Z,32.35
2023-04-02T23:53:29.401Z,31.77
2023-04-02T23:55:56.210Z,32.72
2023-04-02T23:58:22.816Z,29.38
